Time;durP1;ratioP1;P1;durP2;ratioP2;P2;SDS_P1;SDS_P2;PMS_P1;PMS_P2;Temp;Humidity;BMP_temperature;BMP_pressure;BME280_temperature;BME280_humidity;BME280_pressure;Samples;Min_cycle;Max_cycle;Signal;HPM_P1;HPM_P2
2021/12/21 00:01:33;;;;;;;45.25;20.35;;;;;;;;;;5046635;28;20056;-84
2021/12/21 00:03:59;;;;;;;46.65;19.65;;;;;;;;;;5067747;28;20055;-83
2021/12/21 00:06:25;;;;;;;37.90;20.05;;;;;;;;;;5050479;28;20068;-83
2021/12/21 00:08:51;;;;;;;37.70;19.08;;;;;;;;;;5064147;28;20048;-82
2021/12/21 00:11:17;;;;;;;35.20;19.83;;;;;;;;;;5046808;28;20120;-83
2021/12/21 00:13:58;;;;;;;38.38;18.65;;;;;;;;;;5044322;28;20124;-82
2021/12/21 00:16:48;;;;;;;40.42;19.38;;;;;;;;;;5047032;28;20095;-83
2021/12/21 00:21:53;;;;;;;35.80;17.70;;;;;;;;;;5062026;28;20096;-84
2021/12/21 00:24:22;;;;;;;38.25;19.48;;;;;;;;;;5048031;28;20040;-82
2021/12/21 00:26:48;;;;;;;37.97;19.10;;;;;;;;;;5063968;28;20106;-82
2021/12/21 00:29:14;;;;;;;40.97;18.65;;;;;;;;;;5048610;28;20045;-80
2021/12/21 00:31:40;;;;;;;33.58;18.00;;;;;;;;;;5067579;28;20083;-83
2021/12/21 00:34:07;;;;;;;34.67;18.10;;;;;;;;;;5048133;28;20063;-83
2021/12/21 00:36:33;;;;;;;33.75;17.30;;;;;;;;;;5056815;28;20041;-83
2021/12/21 00:39:04;;;;;;;38.67;17.45;;;;;;;;;;5068205;28;20095;-84
2021/12/21 00:41:31;;;;;;;36.42;16.17;;;;;;;;;;5048951;28;20052;-84
2021/12/21 00:43:57;;;;;;;32.15;16.90;;;;;;;;;;5068121;28;20045;-84
2021/12/21 00:46:23;;;;;;;29.10;16.05;;;;;;;;;;5074118;28;20037;-81
2021/12/21 00:48:52;;;;;;;28.70;15.52;;;;;;;;;;5054338;28;20041;-82
2021/12/21 00:51:19;;;;;;;29.90;15.70;;;;;;;;;;5049789;28;20037;-83
2021/12/21 00:53:45;;;;;;;38.47;17.33;;;;;;;;;;5045218;28;20386;-83
2021/12/21 00:56:11;;;;;;;36.75;17.20;;;;;;;;;;5045174;28;20056;-83
2021/12/21 00:58:37;;;;;;;37.08;17.02;;;;;;;;;;5046708;28;20041;-82
2021/12/21 01:01:05;;;;;;;36.28;16.23;;;;;;;;;;5045375;28;20133;-82
2021/12/21 01:03:32;;;;;;;33.50;16.92;;;;;;;;;;5046503;28;20083;-84
2021/12/21 01:06:09;;;;;;;29.13;16.13;;;;;;;;;;5045312;28;20044;-83
2021/12/21 01:08:58;;;;;;;29.13;16.42;;;;;;;;;;5047756;28;20056;-84
2021/12/21 01:11:27;;;;;;;36.88;17.05;;;;;;;;;;5063169;28;20096;-83
2021/12/21 01:14:05;;;;;;;32.17;17.45;;;;;;;;;;5063696;28;20102;-83
2021/12/21 01:16:48;;;;;;;33.00;16.60;;;;;;;;;;5047007;28;20878;-84
2021/12/21 01:19:21;;;;;;;35.03;15.67;;;;;;;;;;5046795;28;20037;-84
2021/12/21 01:22:00;;;;;;;30.90;16.38;;;;;;;;;;5059861;28;20326;-83
2021/12/21 01:32:14;;;;;;;32.20;17.05;;;;;;;;;;5061305;28;20126;-83
2021/12/21 01:37:17;;;;;;;36.75;20.98;;;;;;;;;;5068975;28;20037;-85
2021/12/21 01:39:59;;;;;;;36.72;19.50;;;;;;;;;;5046762;28;20083;-83
2021/12/21 01:42:38;;;;;;;38.88;20.40;;;;;;;;;;5045805;28;20045;-84
2021/12/21 01:50:34;;;;;;;43.60;24.55;;;;;;;;;;5061630;28;20488;-81
2021/12/21 01:53:00;;;;;;;43.00;23.63;;;;;;;;;;5053538;28;20040;-80
2021/12/21 01:55:26;;;;;;;40.53;21.98;;;;;;;;;;5055814;28;20159;-83
2021/12/21 01:57:52;;;;;;;40.75;21.95;;;;;;;;;;5054791;28;20037;-82
2021/12/21 02:00:18;;;;;;;39.20;21.52;;;;;;;;;;5060577;28;20029;-82
2021/12/21 02:02:44;;;;;;;38.78;20.98;;;;;;;;;;5057697;28;20059;-82
2021/12/21 02:05:10;;;;;;;37.92;20.48;;;;;;;;;;5054159;28;20080;-81
2021/12/21 02:07:36;;;;;;;35.10;19.67;;;;;;;;;;5065610;28;20036;-81
2021/12/21 02:10:03;;;;;;;34.83;19.17;;;;;;;;;;5060494;28;20068;-82
2021/12/21 02:12:29;;;;;;;40.72;19.20;;;;;;;;;;5043160;28;20045;-79
2021/12/21 02:14:57;;;;;;;33.45;18.33;;;;;;;;;;5044182;28;20037;-83
2021/12/21 02:19:59;;;;;;;38.65;18.30;;;;;;;;;;5060509;28;20056;-82
2021/12/21 02:22:29;;;;;;;33.92;17.25;;;;;;;;;;5044503;28;20049;-82
2021/12/21 02:25:08;;;;;;;33.13;16.40;;;;;;;;;;5060080;28;20041;-83
2021/12/21 02:27:54;;;;;;;31.67;16.15;;;;;;;;;;5061424;28;20041;-82
2021/12/21 02:30:21;;;;;;;30.88;15.73;;;;;;;;;;5062174;28;20047;-83
2021/12/21 02:32:47;;;;;;;31.65;15.45;;;;;;;;;;5045166;28;20033;-83
2021/12/21 02:35:13;;;;;;;35.50;14.73;;;;;;;;;;5045497;28;20040;-84
2021/12/21 02:37:39;;;;;;;28.05;15.60;;;;;;;;;;5044237;28;20374;-84
2021/12/21 02:40:05;;;;;;;25.75;15.57;;;;;;;;;;5048295;28;20047;-84
2021/12/21 02:42:31;;;;;;;29.58;14.77;;;;;;;;;;5068599;28;20044;-84
2021/12/21 02:44:57;;;;;;;26.58;14.00;;;;;;;;;;5045286;28;20392;-85
2021/12/21 02:47:23;;;;;;;27.92;14.95;;;;;;;;;;5074569;28;20432;-84
2021/12/21 02:49:49;;;;;;;27.23;14.07;;;;;;;;;;5060726;28;20429;-85
2021/12/21 02:52:15;;;;;;;36.38;15.52;;;;;;;;;;5044769;28;20075;-84
2021/12/21 02:54:41;;;;;;;28.92;15.18;;;;;;;;;;5062151;28;20044;-82
2021/12/21 02:57:09;;;;;;;28.73;13.93;;;;;;;;;;5043282;28;20041;-81
2021/12/21 02:59:35;;;;;;;26.30;14.02;;;;;;;;;;5060058;28;20032;-83
2021/12/21 03:02:01;;;;;;;27.58;14.27;;;;;;;;;;5043780;28;20506;-84
2021/12/21 03:04:27;;;;;;;32.78;15.80;;;;;;;;;;5060845;28;20096;-83
2021/12/21 03:07:26;;;;;;;39.15;16.25;;;;;;;;;;5043363;28;20131;-83
2021/12/21 03:09:54;;;;;;;31.10;15.18;;;;;;;;;;5059435;28;20460;-83
2021/12/21 03:14:49;;;;;;;38.08;15.48;;;;;;;;;;5060642;28;20095;-85
2021/12/21 03:17:15;;;;;;;34.35;16.75;;;;;;;;;;5044677;28;20116;-84
2021/12/21 03:19:41;;;;;;;32.13;15.60;;;;;;;;;;5044639;28;20060;-86
2021/12/21 03:22:07;;;;;;;33.33;15.18;;;;;;;;;;5043726;28;20041;-81
2021/12/21 03:24:33;;;;;;;30.17;14.93;;;;;;;;;;5043818;28;20036;-81
2021/12/21 03:27:00;;;;;;;28.05;14.85;;;;;;;;;;5045327;28;20037;-82
2021/12/21 03:29:26;;;;;;;29.55;15.55;;;;;;;;;;5062770;28;20111;-82
2021/12/21 03:31:52;;;;;;;29.75;15.57;;;;;;;;;;5059992;28;20041;-83
2021/12/21 03:34:18;;;;;;;25.75;15.00;;;;;;;;;;5055499;28;20065;-83
2021/12/21 03:36:45;;;;;;;26.85;13.82;;;;;;;;;;5047614;28;20037;-84
2021/12/21 03:39:17;;;;;;;28.00;14.70;;;;;;;;;;5048970;28;20472;-84
2021/12/21 03:41:46;;;;;;;33.03;15.82;;;;;;;;;;5048839;28;20049;-85
2021/12/21 03:44:12;;;;;;;37.40;15.68;;;;;;;;;;5048200;28;20430;-84
2021/12/21 03:46:47;;;;;;;34.45;16.35;;;;;;;;;;5070801;28;20044;-82
2021/12/21 03:49:51;;;;;;;33.25;15.40;;;;;;;;;;5063348;28;20055;-82
2021/12/21 03:52:08;;;;;;;29.23;15.43;;;;;;;;;;5066643;28;20040;-83
2021/12/21 03:54:34;;;;;;;31.27;15.95;;;;;;;;;;5049515;28;20044;-83
2021/12/21 03:57:01;;;;;;;28.80;15.00;;;;;;;;;;5045146;28;20076;-82
2021/12/21 03:59:27;;;;;;;33.78;16.95;;;;;;;;;;5045935;28;20041;-82
2021/12/21 04:01:53;;;;;;;35.72;16.98;;;;;;;;;;5063662;28;20068;-83
2021/12/21 04:04:19;;;;;;;32.33;16.13;;;;;;;;;;5046861;28;20739;-83
2021/12/21 04:06:46;;;;;;;35.20;18.35;;;;;;;;;;5048188;28;20372;-81
2021/12/21 04:09:12;;;;;;;29.80;16.17;;;;;;;;;;5044420;28;20120;-83
2021/12/21 04:11:38;;;;;;;33.00;18.00;;;;;;;;;;5043380;28;20041;-82
2021/12/21 04:14:04;;;;;;;36.97;17.10;;;;;;;;;;5044186;28;20073;-82
2021/12/21 04:16:30;;;;;;;30.38;16.15;;;;;;;;;;5066432;28;20051;-82
2021/12/21 04:18:56;;;;;;;38.13;16.65;;;;;;;;;;5056360;28;20044;-83
2021/12/21 04:21:22;;;;;;;30.70;16.20;;;;;;;;;;5060630;28;20059;-85
2021/12/21 04:23:48;;;;;;;31.13;16.52;;;;;;;;;;5043995;28;20072;-82
2021/12/21 04:26:15;;;;;;;32.58;16.40;;;;;;;;;;5041498;28;20430;-81
2021/12/21 04:28:41;;;;;;;31.77;15.07;;;;;;;;;;5041592;28;20044;-82
2021/12/21 04:31:07;;;;;;;31.60;15.82;;;;;;;;;;5044453;28;20037;-80
2021/12/21 04:33:33;;;;;;;30.23;15.07;;;;;;;;;;5057087;28;20052;-82
2021/12/21 04:36:00;;;;;;;31.25;16.25;;;;;;;;;;5056872;28;20037;-84
2021/12/21 04:38:31;;;;;;;35.10;16.50;;;;;;;;;;5042473;28;20107;-82
2021/12/21 04:41:04;;;;;;;38.28;18.30;;;;;;;;;;5038943;28;20066;-82
2021/12/21 04:43:30;;;;;;;36.15;17.35;;;;;;;;;;5040235;28;20471;-82
2021/12/21 04:45:56;;;;;;;34.60;16.85;;;;;;;;;;5056560;28;20040;-83
2021/12/21 04:48:22;;;;;;;35.55;17.40;;;;;;;;;;5057636;28;20143;-83
2021/12/21 04:50:48;;;;;;;43.30;22.90;;;;;;;;;;5041627;28;20039;-84
2021/12/21 04:53:14;;;;;;;41.63;21.02;;;;;;;;;;5044708;28;20040;-84
2021/12/21 04:55:40;;;;;;;38.30;19.00;;;;;;;;;;5060295;28;20137;-83
2021/12/21 04:58:06;;;;;;;40.20;18.60;;;;;;;;;;5042936;28;20047;-82
2021/12/21 05:00:33;;;;;;;39.22;18.52;;;;;;;;;;5040557;28;20033;-82
2021/12/21 05:02:59;;;;;;;29.65;17.17;;;;;;;;;;5054052;28;20037;-80
2021/12/21 05:05:25;;;;;;;37.10;18.40;;;;;;;;;;5054790;28;20444;-82
2021/12/21 05:08:04;;;;;;;39.20;17.48;;;;;;;;;;5060907;28;20047;-82
2021/12/21 05:10:31;;;;;;;33.50;17.10;;;;;;;;;;5046467;28;20059;-80
2021/12/21 05:12:57;;;;;;;33.65;17.05;;;;;;;;;;5059265;28;20028;-81
2021/12/21 05:15:23;;;;;;;36.83;16.33;;;;;;;;;;5076662;28;20097;-81
2021/12/21 05:17:49;;;;;;;26.25;14.65;;;;;;;;;;5043131;28;20556;-82
2021/12/21 05:20:15;;;;;;;31.25;15.52;;;;;;;;;;5063605;28;20037;-82
2021/12/21 05:22:41;;;;;;;32.63;15.68;;;;;;;;;;5060840;28;20617;-84
2021/12/21 05:25:07;;;;;;;28.58;15.23;;;;;;;;;;5044130;28;20033;-84
2021/12/21 05:27:33;;;;;;;28.95;14.70;;;;;;;;;;5044006;28;20474;-80
2021/12/21 05:29:59;;;;;;;31.35;15.07;;;;;;;;;;5078102;28;20033;-80
2021/12/21 05:32:25;;;;;;;36.92;15.20;;;;;;;;;;5079503;28;20094;-81
2021/12/21 05:34:51;;;;;;;29.77;15.57;;;;;;;;;;5042103;28;20045;-81
2021/12/21 05:37:17;;;;;;;31.05;15.60;;;;;;;;;;5063204;28;20044;-81
2021/12/21 05:40:32;;;;;;;33.35;14.80;;;;;;;;;;5062929;28;20052;-79
2021/12/21 05:42:30;;;;;;;36.65;14.73;;;;;;;;;;5068445;28;20052;-80
2021/12/21 05:44:56;;;;;;;25.73;14.73;;;;;;;;;;5043657;28;20070;-80
2021/12/21 05:47:22;;;;;;;36.92;15.15;;;;;;;;;;5061640;28;20037;-80
2021/12/21 05:49:48;;;;;;;28.35;15.13;;;;;;;;;;5075839;28;20044;-80
2021/12/21 05:52:14;;;;;;;30.98;15.30;;;;;;;;;;5062915;28;20098;-80
2021/12/21 05:54:40;;;;;;;28.77;14.88;;;;;;;;;;5041230;28;20106;-81
2021/12/21 05:57:06;;;;;;;38.38;18.08;;;;;;;;;;5048345;28;20042;-80
2021/12/21 05:59:32;;;;;;;36.25;18.17;;;;;;;;;;5050474;28;20504;-80
2021/12/21 06:01:58;;;;;;;33.95;17.33;;;;;;;;;;5057366;28;20122;-82
2021/12/21 06:04:24;;;;;;;46.28;23.70;;;;;;;;;;5040000;28;20116;-81
2021/12/21 06:06:51;;;;;;;30.85;15.20;;;;;;;;;;5046859;28;20044;-81
2021/12/21 06:09:17;;;;;;;35.30;16.70;;;;;;;;;;5059711;28;20033;-80
2021/12/21 06:12:06;;;;;;;26.35;14.40;;;;;;;;;;5057439;28;20063;-81
2021/12/21 06:27:43;;;;;;;32.58;17.58;;;;;;;;;;5064710;28;20033;-81
2021/12/21 06:30:09;;;;;;;33.45;14.68;;;;;;;;;;5061482;28;20057;-81
2021/12/21 06:32:36;;;;;;;38.03;17.50;;;;;;;;;;5063480;28;20128;-80
2021/12/21 06:35:05;;;;;;;30.33;16.02;;;;;;;;;;5052305;28;20438;-82
2021/12/21 06:37:32;;;;;;;30.70;15.43;;;;;;;;;;5058043;28;20037;-78
2021/12/21 06:39:58;;;;;;;34.10;18.02;;;;;;;;;;5074759;28;20104;-81
2021/12/21 06:42:25;;;;;;;34.88;17.15;;;;;;;;;;5048233;28;20040;-81
2021/12/21 06:44:55;;;;;;;29.45;16.33;;;;;;;;;;5048006;28;20045;-83
2021/12/21 06:52:52;;;;;;;29.65;15.27;;;;;;;;;;5067102;28;20055;-83
2021/12/21 06:55:18;;;;;;;32.83;15.02;;;;;;;;;;5049838;28;20033;-82
2021/12/21 06:57:45;;;;;;;31.48;14.50;;;;;;;;;;5049007;28;20051;-83
2021/12/21 07:00:12;;;;;;;27.77;14.75;;;;;;;;;;5067282;28;20072;-83
2021/12/21 07:02:38;;;;;;;33.28;15.77;;;;;;;;;;5069234;28;20065;-83
2021/12/21 07:05:05;;;;;;;33.78;17.65;;;;;;;;;;5058400;28;20055;-82
2021/12/21 07:07:31;;;;;;;40.28;19.13;;;;;;;;;;5052538;28;20043;-84
2021/12/21 07:10:01;;;;;;;37.90;17.58;;;;;;;;;;5057321;28;20052;-84
2021/12/21 07:18:08;;;;;;;40.85;17.77;;;;;;;;;;5071498;28;20037;-83
2021/12/21 07:20:35;;;;;;;33.58;15.90;;;;;;;;;;5067063;28;20021;-81
2021/12/21 07:23:01;;;;;;;36.38;17.10;;;;;;;;;;5081737;28;20029;-83
2021/12/21 07:25:27;;;;;;;34.88;15.70;;;;;;;;;;5077863;28;20017;-83
2021/12/21 07:27:53;;;;;;;30.77;15.35;;;;;;;;;;5059523;28;20041;-82
2021/12/21 07:30:19;;;;;;;32.20;15.57;;;;;;;;;;5068746;28;20037;-83
2021/12/21 07:32:45;;;;;;;29.80;14.48;;;;;;;;;;5069675;28;20063;-85
2021/12/21 07:35:11;;;;;;;28.42;14.48;;;;;;;;;;5068877;28;20044;-81
2021/12/21 07:37:37;;;;;;;32.72;15.38;;;;;;;;;;5067670;28;20041;-82
2021/12/21 07:40:04;;;;;;;25.58;13.02;;;;;;;;;;5067606;28;20104;-81
2021/12/21 07:42:30;;;;;;;32.40;13.38;;;;;;;;;;5050769;28;20120;-82
2021/12/21 07:44:56;;;;;;;23.92;12.80;;;;;;;;;;5045038;28;20077;-82
2021/12/21 07:47:22;;;;;;;24.35;12.55;;;;;;;;;;5062105;28;20072;-83
2021/12/21 07:49:48;;;;;;;29.63;13.02;;;;;;;;;;5044946;28;20032;-82
2021/12/21 07:52:14;;;;;;;28.35;13.55;;;;;;;;;;5046213;28;20069;-81
2021/12/21 07:54:40;;;;;;;25.13;12.77;;;;;;;;;;5048050;28;20070;-82
2021/12/21 07:57:06;;;;;;;25.55;13.43;;;;;;;;;;5044667;28;20045;-83
2021/12/21 07:59:33;;;;;;;30.90;15.07;;;;;;;;;;5044584;28;20449;-84
2021/12/21 08:01:59;;;;;;;36.03;14.00;;;;;;;;;;5062087;28;20060;-81
2021/12/21 08:04:28;;;;;;;28.02;13.32;;;;;;;;;;5047451;28;20041;-81
2021/12/21 08:06:56;;;;;;;28.20;14.88;;;;;;;;;;5063503;28;20051;-79
2021/12/21 08:09:25;;;;;;;29.27;15.05;;;;;;;;;;5073489;28;20044;-81
2021/12/21 08:14:35;;;;;;;29.25;15.25;;;;;;;;;;5065809;28;20037;-83
2021/12/21 08:17:01;;;;;;;32.58;16.00;;;;;;;;;;5062604;28;20369;-81
2021/12/21 08:19:27;;;;;;;32.75;17.05;;;;;;;;;;5047130;28;20075;-81
2021/12/21 08:21:53;;;;;;;35.97;17.30;;;;;;;;;;5047529;28;20041;-80
2021/12/21 08:24:19;;;;;;;32.88;17.70;;;;;;;;;;5062919;28;20479;-80
2021/12/21 08:26:45;;;;;;;43.97;18.85;;;;;;;;;;5061848;28;20036;-83
2021/12/21 08:29:11;;;;;;;33.83;18.10;;;;;;;;;;5046608;28;20187;-81
2021/12/21 08:31:37;;;;;;;35.08;18.00;;;;;;;;;;5045681;28;20033;-83
2021/12/21 08:34:03;;;;;;;39.38;20.23;;;;;;;;;;5045066;28;20041;-80
2021/12/21 08:36:31;;;;;;;40.70;20.15;;;;;;;;;;5047979;28;20379;-80
2021/12/21 08:38:57;;;;;;;42.25;19.10;;;;;;;;;;5044693;28;20423;-81
2021/12/21 08:41:24;;;;;;;41.65;18.80;;;;;;;;;;5062527;28;20033;-80
2021/12/21 08:43:51;;;;;;;39.25;18.27;;;;;;;;;;5045093;28;20052;-81
2021/12/21 08:46:17;;;;;;;31.92;17.55;;;;;;;;;;5044286;28;20037;-81
2021/12/21 08:48:43;;;;;;;40.38;19.25;;;;;;;;;;5063719;28;20048;-82
2021/12/21 08:51:09;;;;;;;41.05;18.60;;;;;;;;;;5071199;28;20079;-79
2021/12/21 08:53:42;;;;;;;39.28;17.27;;;;;;;;;;5062210;28;20029;-79
2021/12/21 08:56:08;;;;;;;35.60;16.13;;;;;;;;;;5063954;28;20051;-77
2021/12/21 08:58:34;;;;;;;33.10;16.13;;;;;;;;;;5063782;28;20041;-79
2021/12/21 09:01:00;;;;;;;33.85;16.38;;;;;;;;;;5044720;28;20049;-79
2021/12/21 09:03:26;;;;;;;34.72;16.77;;;;;;;;;;5061755;28;20356;-79
2021/12/21 09:05:52;;;;;;;32.00;16.08;;;;;;;;;;5042743;28;20041;-82
2021/12/21 09:08:18;;;;;;;28.60;15.68;;;;;;;;;;5042363;28;20037;-80
2021/12/21 09:10:44;;;;;;;36.35;16.77;;;;;;;;;;5042783;28;20143;-81
2021/12/21 09:13:10;;;;;;;34.50;16.25;;;;;;;;;;5064582;28;20074;-78
2021/12/21 09:15:37;;;;;;;33.83;16.55;;;;;;;;;;5051869;28;20463;-81
2021/12/21 09:18:03;;;;;;;29.10;14.35;;;;;;;;;;5042951;28;20049;-80
2021/12/21 09:20:29;;;;;;;32.00;15.40;;;;;;;;;;5045598;28;20044;-81
2021/12/21 09:22:55;;;;;;;30.98;15.02;;;;;;;;;;5063017;28;20040;-79
2021/12/21 09:25:23;;;;;;;30.38;16.02;;;;;;;;;;5044536;28;20453;-82
2021/12/21 09:27:49;;;;;;;31.60;16.17;;;;;;;;;;5043997;28;20036;-80
2021/12/21 09:30:16;;;;;;;30.98;15.00;;;;;;;;;;5061468;28;20047;-81
2021/12/21 09:32:42;;;;;;;37.60;16.58;;;;;;;;;;5061049;28;20041;-81
2021/12/21 09:35:08;;;;;;;31.92;16.67;;;;;;;;;;5064033;28;20122;-80
2021/12/21 09:37:34;;;;;;;41.58;17.65;;;;;;;;;;5056325;28;20041;-79
2021/12/21 09:40:00;;;;;;;36.55;17.92;;;;;;;;;;5060991;28;20048;-79
2021/12/21 09:42:27;;;;;;;31.95;16.40;;;;;;;;;;5048870;28;20116;-79
2021/12/21 09:44:53;;;;;;;34.33;15.40;;;;;;;;;;5044336;28;20043;-82
2021/12/21 09:47:21;;;;;;;30.95;14.77;;;;;;;;;;5044301;28;20217;-80
2021/12/21 09:49:47;;;;;;;34.35;14.45;;;;;;;;;;5048918;28;20079;-79
2021/12/21 09:52:14;;;;;;;29.13;14.57;;;;;;;;;;5050361;28;20037;-81
2021/12/21 09:54:40;;;;;;;28.48;15.10;;;;;;;;;;5047861;28;20108;-81
2021/12/21 09:57:06;;;;;;;26.10;13.90;;;;;;;;;;5048312;28;20101;-82
2021/12/21 09:59:32;;;;;;;28.15;14.70;;;;;;;;;;5044994;28;20106;-82
2021/12/21 10:01:58;;;;;;;27.73;14.43;;;;;;;;;;5062507;28;20198;-82
2021/12/21 10:04:24;;;;;;;29.75;13.88;;;;;;;;;;5063217;28;20368;-83
2021/12/21 10:06:52;;;;;;;30.48;14.13;;;;;;;;;;5065159;28;20053;-80
2021/12/21 10:09:19;;;;;;;27.10;13.75;;;;;;;;;;5046973;28;20036;-81
2021/12/21 10:11:47;;;;;;;27.65;13.70;;;;;;;;;;5044237;28;20041;-82
2021/12/21 10:14:14;;;;;;;37.03;14.30;;;;;;;;;;5043519;28;20041;-84
2021/12/21 10:16:40;;;;;;;30.65;13.40;;;;;;;;;;5062052;28;20036;-82
2021/12/21 10:19:06;;;;;;;29.20;14.77;;;;;;;;;;5068778;28;20037;-78
2021/12/21 10:21:32;;;;;;;28.73;14.07;;;;;;;;;;5050622;28;20049;-81
2021/12/21 10:23:58;;;;;;;32.65;13.70;;;;;;;;;;5073096;28;20051;-82
2021/12/21 10:26:25;;;;;;;26.98;12.95;;;;;;;;;;5060507;28;20037;-81
2021/12/21 10:28:52;;;;;;;26.85;12.05;;;;;;;;;;5044916;28;20041;-82
2021/12/21 10:31:32;;;;;;;29.08;12.93;;;;;;;;;;5062650;28;20064;-81
2021/12/21 10:33:59;;;;;;;33.45;12.40;;;;;;;;;;5061355;28;20114;-82
2021/12/21 10:36:26;;;;;;;32.75;12.65;;;;;;;;;;5062263;28;20040;-81
2021/12/21 10:39:02;;;;;;;25.27;12.93;;;;;;;;;;5044529;28;20375;-80
2021/12/21 10:41:28;;;;;;;22.73;12.68;;;;;;;;;;5062040;28;20041;-80
2021/12/21 10:43:57;;;;;;;29.08;12.95;;;;;;;;;;5063432;28;20049;-81
2021/12/21 10:46:23;;;;;;;25.58;13.18;;;;;;;;;;5061760;28;20066;-82
2021/12/21 10:48:50;;;;;;;24.42;12.10;;;;;;;;;;5063558;28;20441;-82
2021/12/21 10:51:16;;;;;;;21.48;12.23;;;;;;;;;;5063510;28;20033;-81
2021/12/21 10:53:49;;;;;;;28.70;11.40;;;;;;;;;;5063890;28;20052;-81
2021/12/21 10:56:15;;;;;;;19.58;9.35;;;;;;;;;;5047813;28;20071;-80
2021/12/21 10:58:42;;;;;;;20.90;10.93;;;;;;;;;;5043860;28;20453;-80
2021/12/21 11:01:09;;;;;;;25.40;11.57;;;;;;;;;;5048117;28;20048;-80
2021/12/21 11:03:38;;;;;;;22.85;12.23;;;;;;;;;;5066534;28;20456;-79
2021/12/21 11:06:12;;;;;;;26.42;12.90;;;;;;;;;;5067654;28;20064;-82
2021/12/21 11:08:39;;;;;;;26.20;12.75;;;;;;;;;;5064165;28;20041;-82
2021/12/21 11:11:10;;;;;;;24.17;12.65;;;;;;;;;;5074396;28;20075;-82
2021/12/21 11:13:36;;;;;;;26.92;13.02;;;;;;;;;;5071989;28;20178;-82
2021/12/21 11:16:06;;;;;;;23.02;11.20;;;;;;;;;;5057101;28;20052;-79
2021/12/21 11:18:36;;;;;;;23.80;12.43;;;;;;;;;;5056769;28;20051;-81
2021/12/21 11:21:03;;;;;;;26.23;12.35;;;;;;;;;;5058316;28;20534;-79
2021/12/21 11:23:29;;;;;;;28.25;11.70;;;;;;;;;;5050584;28;20036;-79
2021/12/21 11:25:56;;;;;;;23.30;11.48;;;;;;;;;;5052422;28;20090;-79
2021/12/21 11:28:24;;;;;;;22.55;12.95;;;;;;;;;;5068469;28;20041;-80
2021/12/21 11:30:50;;;;;;;26.33;11.70;;;;;;;;;;5067892;28;20433;-80
2021/12/21 11:33:18;;;;;;;31.55;12.45;;;;;;;;;;5045892;28;20047;-80
2021/12/21 11:38:11;;;;;;;20.13;11.43;;;;;;;;;;5065523;28;20063;-79
2021/12/21 11:40:38;;;;;;;34.90;12.85;;;;;;;;;;5047455;28;20057;-80
2021/12/21 11:43:13;;;;;;;33.60;12.25;;;;;;;;;;5044854;28;20033;-83
2021/12/21 11:45:47;;;;;;;23.25;12.25;;;;;;;;;;5065562;28;20032;-80
2021/12/21 11:48:26;;;;;;;27.50;11.73;;;;;;;;;;5051325;28;20044;-80
2021/12/21 11:50:52;;;;;;;21.83;11.55;;;;;;;;;;5066919;28;20051;-82
2021/12/21 11:53:18;;;;;;;27.83;12.35;;;;;;;;;;5064830;28;20048;-80
2021/12/21 11:55:46;;;;;;;22.65;10.95;;;;;;;;;;5048722;28;20053;-82
2021/12/21 11:58:18;;;;;;;23.35;11.35;;;;;;;;;;5060964;28;20083;-78
2021/12/21 12:00:52;;;;;;;21.52;9.15;;;;;;;;;;5079996;28;20068;-79
2021/12/21 12:03:22;;;;;;;24.73;12.10;;;;;;;;;;5057696;28;20048;-82
2021/12/21 12:05:52;;;;;;;30.05;12.30;;;;;;;;;;5070138;28;20037;-85
2021/12/21 12:08:18;;;;;;;24.55;11.35;;;;;;;;;;5050204;28;20060;-79
2021/12/21 12:10:55;;;;;;;23.67;11.55;;;;;;;;;;5068356;28;20059;-81
2021/12/21 12:13:27;;;;;;;21.00;11.90;;;;;;;;;;5050419;28;20033;-81
2021/12/21 12:15:57;;;;;;;22.48;11.13;;;;;;;;;;5084322;28;20047;-78
2021/12/21 12:18:24;;;;;;;20.50;11.20;;;;;;;;;;5048541;28;20040;-79
2021/12/21 12:20:50;;;;;;;23.80;11.80;;;;;;;;;;5064155;28;20056;-78
2021/12/21 12:23:19;;;;;;;22.65;11.07;;;;;;;;;;5064070;28;20152;-78
2021/12/21 12:25:52;;;;;;;19.42;11.18;;;;;;;;;;5066797;28;20448;-78
2021/12/21 12:28:25;;;;;;;22.75;11.55;;;;;;;;;;5066816;28;20068;-80
2021/12/21 12:30:51;;;;;;;22.98;13.10;;;;;;;;;;5090051;28;20044;-78
2021/12/21 12:33:17;;;;;;;21.88;10.57;;;;;;;;;;5051881;28;20065;-79
2021/12/21 12:35:43;;;;;;;19.65;10.40;;;;;;;;;;5047472;28;20127;-80
2021/12/21 12:38:12;;;;;;;23.50;10.85;;;;;;;;;;5047469;28;20466;-78
2021/12/21 12:40:41;;;;;;;25.35;11.38;;;;;;;;;;5083160;28;20142;-78
2021/12/21 12:43:08;;;;;;;23.55;10.38;;;;;;;;;;5074418;28;20040;-77
2021/12/21 12:45:38;;;;;;;20.05;11.27;;;;;;;;;;5073588;28;20037;-78
2021/12/21 12:48:05;;;;;;;20.23;11.07;;;;;;;;;;5066774;28;20040;-79
2021/12/21 12:50:32;;;;;;;21.58;10.85;;;;;;;;;;5067518;28;20092;-77
2021/12/21 12:53:01;;;;;;;23.67;11.27;;;;;;;;;;5049202;28;20036;-81
2021/12/21 12:55:35;;;;;;;21.10;10.65;;;;;;;;;;5063008;28;20051;-78
2021/12/21 12:58:04;;;;;;;27.30;12.18;;;;;;;;;;5046955;28;20094;-81
2021/12/21 13:00:31;;;;;;;19.73;11.25;;;;;;;;;;5063303;28;20040;-81
2021/12/21 13:02:57;;;;;;;23.98;12.90;;;;;;;;;;5061252;28;20033;-79
2021/12/21 13:05:24;;;;;;;23.45;11.90;;;;;;;;;;5079676;28;20434;-78
2021/12/21 13:07:50;;;;;;;20.70;11.25;;;;;;;;;;5062943;28;20467;-77
2021/12/21 13:10:16;;;;;;;21.08;11.25;;;;;;;;;;5045883;28;20032;-78
2021/12/21 13:12:42;;;;;;;22.23;11.63;;;;;;;;;;5045994;28;20029;-80
2021/12/21 13:15:08;;;;;;;21.02;11.40;;;;;;;;;;5063836;28;20043;-80
2021/12/21 13:17:35;;;;;;;22.65;11.73;;;;;;;;;;5045958;28;20047;-78
2021/12/21 13:20:01;;;;;;;30.02;11.88;;;;;;;;;;5080937;28;20044;-80
2021/12/21 13:22:27;;;;;;;23.15;12.27;;;;;;;;;;5064516;28;20064;-79
2021/12/21 13:24:54;;;;;;;23.73;11.70;;;;;;;;;;5048530;28;20044;-80
2021/12/21 13:27:21;;;;;;;23.52;12.57;;;;;;;;;;5068909;28;20037;-77
2021/12/21 13:29:48;;;;;;;21.40;12.98;;;;;;;;;;5058328;28;20071;-77
2021/12/21 13:32:15;;;;;;;23.58;11.98;;;;;;;;;;5066845;28;20059;-78
2021/12/21 13:34:42;;;;;;;22.55;11.85;;;;;;;;;;5067838;28;20029;-79
2021/12/21 13:37:09;;;;;;;24.33;12.52;;;;;;;;;;5049510;28;20037;-79
2021/12/21 13:39:36;;;;;;;23.98;13.10;;;;;;;;;;5047837;28;20040;-78
2021/12/21 13:42:07;;;;;;;25.80;12.30;;;;;;;;;;5064449;28;20036;-78
2021/12/21 13:44:34;;;;;;;23.40;13.20;;;;;;;;;;5045263;28;20044;-78
2021/12/21 13:47:01;;;;;;;23.90;13.18;;;;;;;;;;5062659;28;20043;-78
2021/12/21 13:49:27;;;;;;;24.83;12.75;;;;;;;;;;5063185;28;20487;-79
2021/12/21 13:51:57;;;;;;;17.73;11.55;;;;;;;;;;5045646;28;20041;-79
2021/12/21 13:54:24;;;;;;;23.45;12.25;;;;;;;;;;5046392;28;20439;-77
2021/12/21 13:56:50;;;;;;;24.13;13.07;;;;;;;;;;5062994;28;20043;-78
2021/12/21 13:59:16;;;;;;;24.58;13.02;;;;;;;;;;5062922;28;20048;-80
2021/12/21 14:01:44;;;;;;;24.45;14.02;;;;;;;;;;5079528;28;20048;-80
2021/12/21 14:04:24;;;;;;;30.48;13.80;;;;;;;;;;5063045;28;20070;-79
2021/12/21 14:06:50;;;;;;;20.55;13.18;;;;;;;;;;5063895;28;20040;-79
2021/12/21 14:09:18;;;;;;;25.02;14.20;;;;;;;;;;5062764;28;20063;-79
2021/12/21 14:11:44;;;;;;;29.35;15.32;;;;;;;;;;5046060;28;20040;-79
2021/12/21 14:14:14;;;;;;;28.38;14.43;;;;;;;;;;5068459;28;20047;-77
2021/12/21 14:16:46;;;;;;;29.48;15.15;;;;;;;;;;5069199;28;20036;-78
2021/12/21 14:19:14;;;;;;;26.60;15.65;;;;;;;;;;5062091;28;20048;-80
2021/12/21 14:21:40;;;;;;;26.23;14.70;;;;;;;;;;5045285;28;20064;-78
2021/12/21 14:24:08;;;;;;;24.40;13.88;;;;;;;;;;5064609;28;20497;-78
2021/12/21 14:26:36;;;;;;;24.80;14.07;;;;;;;;;;5082107;28;20101;-79
2021/12/21 14:29:06;;;;;;;31.70;15.30;;;;;;;;;;5047715;28;20098;-78
2021/12/21 14:31:44;;;;;;;30.52;16.42;;;;;;;;;;5060169;28;20036;-78
2021/12/21 14:34:10;;;;;;;27.58;15.50;;;;;;;;;;5078263;28;20046;-78
2021/12/21 14:36:37;;;;;;;32.63;16.75;;;;;;;;;;5060079;28;20069;-78
2021/12/21 14:39:07;;;;;;;25.23;15.05;;;;;;;;;;5061619;28;20048;-79
2021/12/21 14:41:35;;;;;;;27.98;16.15;;;;;;;;;;5055698;28;20074;-79
2021/12/21 14:44:17;;;;;;;32.67;16.88;;;;;;;;;;5043193;28;20437;-78
2021/12/21 14:47:00;;;;;;;29.05;15.77;;;;;;;;;;5045530;28;20036;-78
2021/12/21 14:49:30;;;;;;;23.42;12.27;;;;;;;;;;5061775;28;20507;-79
2021/12/21 14:51:59;;;;;;;33.53;16.75;;;;;;;;;;5060144;28;20142;-79
2021/12/21 14:54:28;;;;;;;35.47;16.98;;;;;;;;;;5062494;28;20071;-78
2021/12/21 14:57:00;;;;;;;40.47;18.00;;;;;;;;;;5045341;28;20040;-78
2021/12/21 14:59:36;;;;;;;37.28;18.65;;;;;;;;;;5046146;28;20040;-80
2021/12/21 15:02:05;;;;;;;36.88;19.52;;;;;;;;;;5062716;28;20052;-78
2021/12/21 15:04:31;;;;;;;33.35;17.85;;;;;;;;;;5045806;28;20048;-80
2021/12/21 15:06:57;;;;;;;37.78;17.25;;;;;;;;;;5046269;28;20043;-79
2021/12/21 15:09:23;;;;;;;30.27;16.70;;;;;;;;;;5062475;28;20059;-79
2021/12/21 15:11:50;;;;;;;31.80;15.80;;;;;;;;;;5059718;28;20028;-80
2021/12/21 15:14:16;;;;;;;33.63;16.13;;;;;;;;;;5062103;28;20059;-77